Yuedian 58 — BYFE — position and weather

sailwx.info

Track history (hours):
 
Tides and Currents Weather Stations Pressure Air Temp Water Temp Dewpoint Dewpoint Depression Visibility Wind Speed Wind Dir Waves Ship Positions

Yuedian 58

Last reported at 2018-Apr-20 12:02 UTC. Time now 2018-Apr-20 20:32 UTC.
Position N 31°38' E 122°54'.

Length 190 m; draft 7 m.

Type: Cargo ship. MMSI: 414008000.

Date/timePositionNaut miles runAvg speedWind from/ knotsBaromVisibWave heightAir tempDewpointWater temp
2018-Apr-20 12:02N 31°38' E 122°54'011.0
2018-Apr-20 12:00N 31°37' E 122°54'711.2
2018-Apr-20 11:24N 31°31' E 122°57'711.5
2018-Apr-20 10:46N 31°24' E 122°58'1112.1
2018-Apr-20 09:53N 31°13' E 123°01'1713.0
2018-Apr-20 08:33N 30°56' E 122°58'45312.6
2018-Apr-18 20:36N 24°22' E 118°47'411.6
2018-Apr-18 20:16N 24°19' E 118°43'311.4
2018-Apr-18 20:00N 24°17' E 118°41'611.4
2018-Apr-18 19:28N 24°14' E 118°35'511.1
2018-Apr-18 19:00N 24°11' E 118°31'611.2
2018-Apr-18 18:30N 24°07' E 118°26'611.2
2018-Apr-18 17:59N 24°03' E 118°22'611.6
2018-Apr-18 17:30N 23°59' E 118°18'1112.1
2018-Apr-18 16:34N 23°52' E 118°08'112.0
2018-Apr-18 16:30N 23°52' E 118°07'713.0
2018-Apr-18 15:58N 23°47' E 118°01'713.6
2018-Apr-18 15:28N 23°42' E 117°56'713.8
2018-Apr-18 14:58N 23°38' E 117°50'813.9
2018-Apr-18 14:24N 23°32' E 117°45'614.2
2018-Apr-18 14:00N 23°28' E 117°40'713.9
2018-Apr-18 13:30N 23°24' E 117°35'  
Track history (hours):
 
Tides and Currents Weather Stations Pressure Air Temp Water Temp Dewpoint Dewpoint Depression Visibility Wind Speed Wind Dir Waves Ship Positions

Yuedian 58

Last reported at 2018-Apr-20 12:02 UTC. Time now 2018-Apr-20 20:32 UTC.
Position N 31°38' E 122°54'.

Length 190 m; draft 7 m.

Type: Cargo ship. MMSI: 414008000.

Date/timePositionNaut miles runAvg speedWind from/ knotsBaromVisibWave heightAir tempDewpointWater temp
2018-Apr-20 12:02N 31°38' E 122°54'011.0
2018-Apr-20 12:00N 31°37' E 122°54'711.2
2018-Apr-20 11:24N 31°31' E 122°57'711.5
2018-Apr-20 10:46N 31°24' E 122°58'1112.1
2018-Apr-20 09:53N 31°13' E 123°01'1713.0
2018-Apr-20 08:33N 30°56' E 122°58'45312.6
2018-Apr-18 20:36N 24°22' E 118°47'411.6
2018-Apr-18 20:16N 24°19' E 118°43'311.4
2018-Apr-18 20:00N 24°17' E 118°41'611.4
2018-Apr-18 19:28N 24°14' E 118°35'511.1
2018-Apr-18 19:00N 24°11' E 118°31'611.2
2018-Apr-18 18:30N 24°07' E 118°26'611.2
2018-Apr-18 17:59N 24°03' E 118°22'611.6
2018-Apr-18 17:30N 23°59' E 118°18'1112.1
2018-Apr-18 16:34N 23°52' E 118°08'112.0
2018-Apr-18 16:30N 23°52' E 118°07'713.0
2018-Apr-18 15:58N 23°47' E 118°01'713.6
2018-Apr-18 15:28N 23°42' E 117°56'713.8
2018-Apr-18 14:58N 23°38' E 117°50'813.9
2018-Apr-18 14:24N 23°32' E 117°45'614.2
2018-Apr-18 14:00N 23°28' E 117°40'713.9
2018-Apr-18 13:30N 23°24' E 117°35'  

Dump ship's entire track history